createdAt,value
2022-12-11T00:02:11.174Z,9.95
2022-12-11T00:04:41.637Z,10.04
2022-12-11T00:07:10.338Z,10.13
2022-12-11T00:09:39.161Z,10.06
2022-12-11T00:12:08.451Z,10.03
2022-12-11T00:14:37.292Z,10.13
2022-12-11T00:17:06.541Z,10.24
2022-12-11T00:19:35.047Z,10.25
2022-12-11T00:22:03.431Z,10.19
2022-12-11T00:24:37.508Z,10.21
2022-12-11T00:27:06.219Z,10.19
2022-12-11T00:29:35.391Z,10.16
2022-12-11T00:32:03.283Z,10.14
2022-12-11T00:34:32.803Z,10.09
2022-12-11T00:37:01.113Z,10.26
2022-12-11T00:39:29.162Z,10.21
2022-12-11T00:41:58.570Z,10.24
2022-12-11T00:44:27.590Z,10.10
2022-12-11T00:46:56.148Z,10.14
2022-12-11T00:49:25.211Z,10.38
2022-12-11T00:51:56.788Z,10.39
2022-12-11T00:54:25.157Z,10.43
2022-12-11T00:56:56.496Z,10.49
2022-12-11T00:59:25.571Z,10.39
2022-12-11T01:01:57.085Z,10.36
2022-12-11T01:04:27.365Z,10.43
2022-12-11T01:06:56.490Z,10.44
2022-12-11T01:09:44.693Z,10.49
2022-12-11T01:12:15.451Z,10.39
2022-12-11T01:14:44.262Z,10.47
2022-12-11T01:17:16.201Z,10.44
2022-12-11T01:19:44.205Z,10.51
2022-12-11T01:22:13.084Z,10.64
2022-12-11T01:24:41.057Z,10.69
2022-12-11T01:27:09.877Z,10.67
2022-12-11T01:29:38.171Z,10.65
2022-12-11T01:32:06.459Z,10.71
2022-12-11T01:34:35.365Z,10.66
2022-12-11T01:37:06.180Z,10.73
2022-12-11T01:39:37.103Z,10.84
2022-12-11T01:42:07.482Z,10.78
2022-12-11T01:44:38.480Z,10.82
2022-12-11T01:47:08.017Z,10.78
2022-12-11T01:49:37.585Z,10.83
2022-12-11T01:52:17.853Z,10.87
2022-12-11T01:54:48.360Z,10.74
2022-12-11T01:57:20.274Z,10.80
2022-12-11T01:59:48.342Z,10.85
2022-12-11T02:02:22.762Z,10.75
2022-12-11T02:04:51.073Z,10.74
2022-12-11T02:07:20.344Z,10.76
2022-12-11T02:09:49.050Z,10.78
2022-12-11T02:12:54.366Z,10.73
2022-12-11T02:15:45.380Z,10.65
2022-12-11T02:18:49.797Z,10.55
2022-12-11T02:21:27.880Z,10.69
2022-12-11T02:24:42.858Z,10.61
2022-12-11T02:27:26.461Z,10.77
2022-12-11T02:30:14.187Z,10.76
2022-12-11T02:32:56.780Z,10.90
2022-12-11T02:35:44.546Z,10.85
2022-12-11T02:38:22.597Z,10.95
2022-12-11T02:40:56.641Z,11.06
2022-12-11T02:43:26.530Z,11.07
2022-12-11T02:45:56.628Z,11.18
2022-12-11T02:48:26.982Z,11.19
2022-12-11T02:50:59.181Z,11.27
2022-12-11T02:53:32.114Z,11.24
2022-12-11T02:56:10.712Z,11.26
2022-12-11T02:58:47.470Z,11.36
2022-12-11T03:01:16.675Z,11.32
2022-12-11T03:03:45.075Z,11.32
2022-12-11T03:06:20.461Z,11.32
2022-12-11T03:08:52.204Z,11.40
2022-12-11T03:11:21.444Z,11.30
2022-12-11T03:13:50.357Z,11.30
2022-12-11T03:16:43.564Z,11.40
2022-12-11T03:19:24.817Z,11.38
2022-12-11T03:21:58.812Z,11.40
2022-12-11T03:25:07.180Z,11.45
2022-12-11T03:28:15.168Z,11.38
2022-12-11T03:30:49.965Z,11.46
2022-12-11T03:33:27.463Z,11.53
2022-12-11T03:36:17.261Z,11.50
2022-12-11T03:38:58.820Z,11.21
2022-12-11T03:41:31.595Z,11.40
2022-12-11T03:44:00.712Z,11.40
2022-12-11T03:46:38.411Z,11.34
2022-12-11T03:49:15.811Z,11.41
2022-12-11T03:51:49.475Z,11.27
2022-12-11T03:54:18.975Z,11.29
2022-12-11T03:56:52.119Z,11.21
2022-12-11T03:59:20.176Z,11.26
2022-12-11T04:01:49.077Z,11.28
2022-12-11T04:04:19.415Z,11.28
2022-12-11T04:06:52.571Z,11.36
2022-12-11T04:09:22.164Z,11.38
2022-12-11T04:11:50.247Z,11.34
2022-12-11T04:14:39.199Z,11.43
2022-12-11T04:17:10.788Z,11.62
2022-12-11T04:20:00.644Z,11.49
2022-12-11T04:22:48.205Z,11.54
2022-12-11T04:25:16.086Z,11.46
2022-12-11T04:27:50.973Z,11.35
2022-12-11T04:30:22.904Z,11.44
2022-12-11T04:32:54.283Z,11.50
2022-12-11T04:35:25.054Z,11.50
2022-12-11T04:37:54.734Z,11.41
2022-12-11T04:40:23.681Z,11.45
2022-12-11T04:42:52.784Z,11.47
2022-12-11T04:45:22.083Z,11.40
2022-12-11T04:47:50.185Z,11.48
2022-12-11T04:50:19.058Z,11.50
2022-12-11T04:52:47.136Z,11.50
2022-12-11T04:55:18.516Z,11.60
2022-12-11T04:57:47.166Z,11.48
2022-12-11T05:00:18.558Z,11.61
2022-12-11T05:02:48.218Z,11.57
2022-12-11T05:05:18.802Z,11.46
2022-12-11T05:07:48.283Z,11.49
2022-12-11T05:10:18.820Z,11.46
2022-12-11T05:12:47.351Z,11.38
2022-12-11T05:15:18.773Z,11.49
2022-12-11T05:17:48.258Z,11.45
2022-12-11T05:20:18.236Z,11.33
2022-12-11T05:22:49.234Z,11.49
2022-12-11T05:25:19.097Z,11.36
2022-12-11T05:27:48.677Z,11.49
2022-12-11T05:30:17.898Z,11.43
2022-12-11T05:32:46.866Z,11.40
2022-12-11T05:35:16.257Z,11.43
2022-12-11T05:37:45.043Z,11.53
2022-12-11T05:40:13.365Z,11.56
2022-12-11T05:42:42.346Z,11.41
2022-12-11T05:45:14.320Z,11.41
2022-12-11T05:47:43.273Z,11.41
2022-12-11T05:50:12.387Z,11.37
2022-12-11T05:52:41.425Z,11.38
2022-12-11T05:55:11.477Z,11.42
2022-12-11T05:57:42.864Z,11.43
2022-12-11T06:00:13.974Z,11.50
2022-12-11T06:02:42.920Z,11.39
2022-12-11T06:05:11.436Z,11.39
2022-12-11T06:07:41.179Z,11.27
2022-12-11T06:10:11.004Z,11.31
2022-12-11T06:12:42.938Z,11.41
2022-12-11T06:15:11.682Z,11.33
2022-12-11T06:17:42.351Z,11.44
2022-12-11T06:20:11.629Z,11.42
2022-12-11T06:22:41.136Z,11.44
2022-12-11T06:25:10.497Z,11.51
2022-12-11T06:27:40.857Z,11.47
2022-12-11T06:30:09.670Z,11.51
2022-12-11T06:32:39.243Z,11.37
2022-12-11T06:35:07.244Z,11.31
2022-12-11T06:37:37.502Z,11.33
2022-12-11T06:40:08.361Z,11.34
2022-12-11T06:42:37.725Z,11.30
2022-12-11T06:45:09.337Z,11.33
2022-12-11T06:47:41.072Z,11.32
2022-12-11T06:50:11.091Z,11.44
2022-12-11T06:52:39.244Z,11.47
2022-12-11T06:55:08.968Z,11.45
2022-12-11T06:57:39.715Z,11.40
2022-12-11T07:00:12.013Z,11.49
2022-12-11T07:02:40.114Z,11.33
2022-12-11T07:05:10.374Z,11.39
2022-12-11T07:07:39.147Z,11.38
2022-12-11T07:10:09.132Z,11.22
2022-12-11T07:12:38.599Z,11.19
2022-12-11T07:15:09.856Z,11.19
2022-12-11T07:17:39.289Z,11.30
2022-12-11T07:20:09.834Z,11.12
2022-12-11T07:22:44.638Z,11.08
2022-12-11T07:25:18.303Z,11.03
2022-12-11T07:27:48.533Z,11.16
2022-12-11T07:30:20.172Z,11.07
2022-12-11T07:32:49.162Z,11.21
2022-12-11T07:35:17.063Z,11.26
2022-12-11T07:37:49.220Z,11.22
2022-12-11T07:40:17.659Z,11.31
2022-12-11T07:42:46.622Z,11.42
2022-12-11T07:45:16.724Z,11.26
2022-12-11T07:47:45.247Z,11.49
2022-12-11T07:50:14.581Z,11.47
2022-12-11T07:52:43.087Z,11.48
2022-12-11T07:55:12.424Z,11.47
2022-12-11T07:57:43.999Z,11.59
2022-12-11T08:00:12.628Z,11.45
2022-12-11T08:02:41.742Z,11.26
2022-12-11T08:05:10.602Z,11.46
2022-12-11T08:07:40.408Z,11.38
2022-12-11T08:10:11.218Z,11.47
2022-12-11T08:12:40.176Z,11.43
2022-12-11T08:15:09.936Z,11.47
2022-12-11T08:17:40.277Z,11.43
2022-12-11T08:20:12.209Z,11.54
2022-12-11T08:22:41.283Z,11.56
2022-12-11T08:25:10.288Z,11.46
2022-12-11T08:27:39.800Z,11.65
2022-12-11T08:30:16.254Z,11.70
2022-12-11T08:32:46.985Z,11.78
2022-12-11T08:35:15.838Z,11.88
2022-12-11T08:37:48.725Z,11.92
2022-12-11T08:40:19.710Z,11.98
2022-12-11T08:42:48.210Z,11.95
2022-12-11T08:45:17.894Z,12.11
2022-12-11T08:47:47.230Z,12.14
2022-12-11T08:50:20.263Z,12.29
2022-12-11T08:52:48.220Z,12.20
2022-12-11T08:55:17.744Z,12.29
2022-12-11T09:00:29.161Z,12.30
2022-12-11T09:02:59.731Z,12.34
2022-12-11T09:05:28.505Z,12.30
2022-12-11T09:11:16.252Z,12.46
2022-12-11T09:13:45.958Z,12.37
2022-12-11T09:16:23.897Z,12.41
2022-12-11T09:18:54.281Z,12.29
2022-12-11T09:21:24.720Z,12.19
2022-12-11T09:23:59.207Z,12.28
2022-12-11T09:26:32.735Z,12.29
2022-12-11T09:29:04.290Z,12.39
2022-12-11T09:31:36.391Z,12.39
2022-12-11T09:34:08.505Z,12.27
2022-12-11T09:36:43.278Z,12.44
2022-12-11T09:39:14.543Z,12.47
2022-12-11T09:42:06.718Z,12.37
2022-12-11T09:44:48.794Z,12.29
2022-12-11T09:47:39.413Z,12.41
2022-12-11T09:50:34.393Z,12.60
2022-12-11T09:53:29.785Z,12.87
2022-12-11T09:56:14.012Z,12.91
2022-12-11T09:59:09.364Z,13.04
2022-12-11T10:02:11.298Z,13.14
2022-12-11T10:05:17.314Z,12.95
2022-12-11T10:08:15.704Z,13.23
2022-12-11T10:11:14.077Z,13.39
2022-12-11T10:13:58.682Z,13.42
2022-12-11T10:16:50.836Z,13.59
2022-12-11T10:19:23.267Z,13.73
2022-12-11T10:21:53.357Z,14.01
2022-12-11T10:25:10.079Z,14.03
2022-12-11T10:27:38.983Z,14.24
2022-12-11T10:30:34.207Z,14.02
2022-12-11T10:33:26.519Z,14.00
2022-12-11T10:35:57.750Z,13.75
2022-12-11T13:44:44.806Z,11.44
2022-12-11T13:50:34.199Z,11.42
2022-12-11T13:53:05.248Z,11.46
2022-12-11T13:55:35.534Z,11.51
2022-12-11T14:01:23.343Z,11.60
2022-12-11T14:04:07.049Z,11.65
2022-12-11T14:06:38.544Z,11.61
2022-12-11T14:09:09.570Z,11.58
2022-12-11T14:11:41.374Z,11.63
2022-12-11T14:14:43.429Z,11.67
2022-12-11T14:17:15.577Z,11.64
2022-12-11T14:19:48.902Z,11.59
2022-12-11T14:22:20.603Z,11.64
2022-12-11T14:24:52.205Z,11.60
2022-12-11T14:27:22.857Z,11.58
2022-12-11T14:29:52.625Z,11.63
2022-12-11T14:32:43.236Z,11.64
2022-12-11T14:35:38.627Z,11.61
2022-12-11T14:38:23.171Z,11.61
2022-12-11T14:40:59.284Z,11.58
2022-12-11T14:43:43.503Z,11.43
2022-12-11T14:46:29.235Z,11.55
2022-12-11T14:49:27.052Z,11.56
2022-12-11T14:51:58.825Z,11.61
2022-12-11T14:54:40.739Z,11.62
2022-12-11T14:57:21.675Z,11.55
2022-12-11T14:59:53.509Z,11.77
2022-12-11T15:02:34.437Z,11.79
2022-12-11T15:05:12.645Z,11.80
2022-12-11T15:07:54.020Z,11.82
2022-12-11T15:10:33.242Z,11.76
2022-12-11T15:13:09.955Z,11.73
2022-12-11T15:15:47.070Z,11.70
2022-12-11T15:18:31.832Z,11.61
2022-12-11T15:21:11.843Z,11.60
2022-12-11T15:23:46.021Z,11.62
2022-12-11T15:26:15.565Z,11.56
2022-12-11T15:28:43.893Z,11.51
2022-12-11T15:31:37.727Z,11.33
2022-12-11T15:34:23.576Z,11.28
2022-12-11T15:36:55.822Z,11.24
2022-12-11T15:39:24.093Z,11.18
2022-12-11T15:41:56.553Z,11.26
2022-12-11T15:44:27.918Z,11.31
2022-12-11T15:46:56.888Z,11.23
2022-12-11T15:49:24.902Z,11.17
2022-12-11T15:51:54.868Z,11.24
2022-12-11T15:54:23.091Z,10.98
2022-12-11T15:56:51.987Z,11.04
2022-12-11T15:59:22.518Z,11.14
2022-12-11T16:01:50.924Z,11.08
2022-12-11T16:04:22.281Z,10.93
2022-12-11T16:06:51.754Z,11.04
2022-12-11T16:09:21.626Z,11.02
2022-12-11T16:11:49.882Z,10.95
2022-12-11T16:14:18.700Z,11.05
2022-12-11T16:16:46.993Z,11.13
2022-12-11T16:19:15.689Z,11.10
2022-12-11T16:21:43.972Z,11.12
2022-12-11T16:24:12.972Z,11.00
2022-12-11T16:26:40.922Z,10.90
2022-12-11T16:29:09.759Z,10.94
2022-12-11T16:31:37.899Z,10.99
2022-12-11T16:34:06.919Z,10.90
2022-12-11T16:36:35.890Z,10.96
2022-12-11T16:39:06.190Z,10.75
2022-12-11T16:41:37.249Z,10.76
2022-12-11T16:44:06.986Z,10.82
2022-12-11T16:46:35.119Z,10.85
2022-12-11T16:49:04.726Z,10.71
2022-12-11T16:51:33.022Z,10.73
2022-12-11T16:54:02.078Z,10.71
2022-12-11T16:56:33.412Z,10.69
2022-12-11T16:59:02.878Z,10.69
2022-12-11T17:01:31.083Z,10.67
2022-12-11T17:04:01.512Z,10.61
2022-12-11T17:06:31.051Z,10.75
2022-12-11T17:08:58.943Z,10.64
2022-12-11T17:11:27.301Z,10.62
2022-12-11T17:14:00.521Z,10.64
2022-12-11T17:16:30.783Z,10.68
2022-12-11T17:19:07.959Z,10.50
2022-12-11T17:21:44.730Z,10.60
2022-12-11T17:24:16.992Z,10.60
2022-12-11T17:26:46.146Z,10.79
2022-12-11T17:29:15.893Z,10.92
2022-12-11T17:31:43.969Z,10.89
2022-12-11T17:34:13.361Z,10.86
2022-12-11T17:36:42.110Z,10.90
2022-12-11T17:39:13.240Z,11.00
2022-12-11T17:41:42.772Z,10.87
2022-12-11T17:44:11.004Z,10.93
2022-12-11T17:46:40.093Z,10.95
2022-12-11T17:49:07.948Z,10.96
2022-12-11T17:51:37.468Z,10.90
2022-12-11T17:54:05.996Z,10.95
2022-12-11T17:56:36.437Z,11.06
2022-12-11T17:59:05.289Z,11.07
2022-12-11T18:01:36.919Z,11.10
2022-12-11T18:04:05.065Z,10.95
2022-12-11T18:06:35.407Z,10.97
2022-12-11T18:09:18.578Z,11.07
2022-12-11T18:11:46.894Z,11.04
2022-12-11T18:14:17.605Z,11.10
2022-12-11T18:16:46.324Z,11.07
2022-12-11T18:19:16.205Z,11.05
2022-12-11T18:21:46.082Z,11.04
2022-12-11T18:24:15.241Z,10.98
2022-12-11T18:26:44.127Z,10.99
2022-12-11T18:29:13.997Z,10.99
2022-12-11T18:31:43.133Z,10.81
2022-12-11T18:34:12.342Z,10.81
2022-12-11T18:36:42.108Z,10.96
2022-12-11T18:39:10.017Z,10.77
2022-12-11T18:41:40.661Z,10.62
2022-12-11T18:44:10.154Z,10.56
2022-12-11T18:46:39.845Z,10.69
2022-12-11T18:49:10.363Z,10.46
2022-12-11T18:51:38.951Z,10.44
2022-12-11T18:54:10.639Z,10.30
2022-12-11T18:56:41.972Z,10.34
2022-12-11T18:59:13.919Z,10.31
2022-12-11T19:01:45.836Z,10.34
2022-12-11T19:04:14.000Z,10.51
2022-12-11T19:06:46.313Z,10.51
2022-12-11T19:09:15.136Z,10.41
2022-12-11T19:11:45.027Z,10.48
2022-12-11T19:14:16.290Z,10.56
2022-12-11T19:16:46.348Z,10.49
2022-12-11T19:19:20.751Z,10.55
2022-12-11T19:21:50.510Z,10.55
2022-12-11T19:24:22.772Z,10.48
2022-12-11T19:26:51.704Z,10.39
2022-12-11T19:29:28.817Z,10.44
2022-12-11T19:31:57.020Z,10.34
2022-12-11T19:34:26.613Z,10.43
2022-12-11T22:54:19.763Z,9.85
2022-12-11T22:56:48.240Z,9.85
2022-12-11T22:59:16.328Z,9.87
2022-12-11T23:01:45.568Z,9.87
2022-12-11T23:04:13.241Z,9.90
2022-12-11T23:06:42.468Z,9.91
2022-12-11T23:09:11.652Z,9.74
2022-12-11T23:11:40.346Z,9.86
2022-12-11T23:14:15.082Z,9.87
2022-12-11T23:16:44.323Z,9.78
2022-12-11T23:19:13.900Z,9.86
2022-12-11T23:21:43.195Z,9.84
2022-12-11T23:24:12.897Z,9.87
2022-12-11T23:26:42.242Z,9.93
2022-12-11T23:29:11.557Z,9.79
2022-12-11T23:31:40.250Z,9.91
2022-12-11T23:34:09.636Z,9.94
2022-12-11T23:36:38.780Z,10.00
2022-12-11T23:39:09.960Z,10.10
2022-12-11T23:41:38.351Z,9.96
2022-12-11T23:44:07.667Z,9.94
2022-12-11T23:46:37.955Z,9.96
2022-12-11T23:49:07.154Z,9.96
2022-12-11T23:51:35.288Z,10.00
2022-12-11T23:54:03.355Z,9.94
2022-12-11T23:56:37.089Z,9.89
2022-12-11T23:59:05.344Z,9.89
